Time;durP1;ratioP1;P1;durP2;ratioP2;P2;SDS_P1;SDS_P2;PMS_P1;PMS_P2;Temp;Humidity;BMP_temperature;BMP_pressure;BME280_temperature;BME280_humidity;BME280_pressure;Samples;Min_cycle;Max_cycle;Signal;HPM_P1;HPM_P2
2022/10/12 00:02:23;;;;;;;24.75;11.35;;;;;;;2.92;71.04;101339.20;1757030;81;21844;-61
2022/10/12 00:05:28;;;;;;;27.15;15.32;;;;;;;2.87;70.98;101337.33;1756926;81;21249;-62
2022/10/12 00:08:34;;;;;;;41.48;21.05;;;;;;;2.81;70.86;101335.88;1722467;82;21232;-62
2022/10/12 00:11:40;;;;;;;46.95;20.92;;;;;;;2.76;70.86;101337.15;1727419;82;21244;-62
2022/10/12 00:14:45;;;;;;;44.63;22.70;;;;;;;2.74;70.94;101331.84;1720654;83;21260;-61
2022/10/12 00:17:53;;;;;;;41.13;18.57;;;;;;;2.74;71.05;101335.06;1734868;81;21220;-62
2022/10/12 00:21:09;;;;;;;35.15;18.07;;;;;;;2.73;71.11;101336.01;1753084;81;21186;-61
2022/10/12 00:24:16;;;;;;;33.02;15.45;;;;;;;2.74;71.27;101337.25;1757934;81;21284;-61
2022/10/12 00:27:22;;;;;;;33.18;15.50;;;;;;;2.76;71.33;101338.50;1757900;81;21169;-60
2022/10/12 00:30:28;;;;;;;30.50;17.02;;;;;;;2.74;71.28;101331.00;1757333;81;21260;-62
2022/10/12 00:33:37;;;;;;;31.95;16.48;;;;;;;2.75;71.32;101342.19;1757867;81;21201;-60
2022/10/12 00:36:45;;;;;;;30.20;15.35;;;;;;;2.74;71.40;101342.66;1757955;81;21198;-61
2022/10/12 00:39:51;;;;;;;34.73;16.35;;;;;;;2.74;71.44;101344.02;1757899;81;21961;-62
2022/10/12 00:42:57;;;;;;;31.65;14.98;;;;;;;2.74;71.43;101341.31;1756288;81;21327;-61
2022/10/12 00:46:06;;;;;;;25.30;13.18;;;;;;;2.73;71.42;101339.59;1763103;81;21177;-62
2022/10/12 00:49:26;;;;;;;33.88;13.50;;;;;;;2.69;71.38;101338.08;1744683;81;21252;-62
2022/10/12 00:52:36;;;;;;;30.23;13.20;;;;;;;2.62;71.24;101339.91;1748043;82;21335;-62
2022/10/12 00:55:46;;;;;;;28.65;13.55;;;;;;;2.56;71.22;101345.73;1767857;81;21236;-62
2022/10/12 00:58:53;;;;;;;30.68;14.20;;;;;;;2.54;71.29;101342.26;1771131;81;21193;-62
2022/10/12 01:02:00;;;;;;;29.10;13.10;;;;;;;2.54;71.34;101342.26;1771263;81;21559;-61
2022/10/12 01:05:05;;;;;;;35.73;15.63;;;;;;;2.54;71.46;101348.54;1771211;81;21212;-61
2022/10/12 01:08:10;;;;;;;32.93;14.65;;;;;;;2.54;71.54;101350.36;1771277;81;21189;-62
2022/10/12 01:11:16;;;;;;;28.87;14.05;;;;;;;2.54;71.61;101347.66;1771150;81;21685;-61
2022/10/12 01:14:23;;;;;;;34.23;15.23;;;;;;;2.54;71.64;101349.02;1771305;81;21283;-61
2022/10/12 01:18:04;;;;;;;32.15;14.53;;;;;;;2.52;71.70;101347.77;1771295;81;21196;-62
2022/10/12 01:21:19;;;;;;;25.82;12.75;;;;;;;2.52;71.70;101346.41;1771236;81;21183;-62
2022/10/12 01:24:34;;;;;;;31.37;13.95;;;;;;;2.48;71.69;101345.37;1771331;81;21188;-60
2022/10/12 01:27:53;;;;;;;29.42;15.05;;;;;;;2.43;71.59;101348.38;1771279;81;21243;-62
2022/10/12 01:31:05;;;;;;;21.73;11.70;;;;;;;2.40;71.58;101347.70;1771171;81;21169;-61
2022/10/12 01:34:49;;;;;;;21.07;11.03;;;;;;;2.38;71.65;101354.56;1746526;81;21169;-61
2022/10/12 01:38:12;;;;;;;14.45;7.80;;;;;;;2.38;71.69;101351.02;1763527;81;21311;-61
2022/10/12 01:41:37;;;;;;;38.17;17.45;;;;;;;2.36;71.74;101348.89;1763736;81;21227;-61
2022/10/12 01:44:44;;;;;;;41.53;21.23;;;;;;;2.36;71.81;101344.33;1737550;81;21411;-62
2022/10/12 01:47:54;;;;;;;42.40;21.82;;;;;;;2.34;71.85;101346.30;1771427;80;21161;-62
2022/10/12 01:51:00;;;;;;;25.55;11.73;;;;;;;2.35;71.85;101349.84;1771257;81;21157;-61
2022/10/12 01:54:24;;;;;;;25.70;10.75;;;;;;;2.31;71.75;101349.67;1763021;81;21244;-62
2022/10/12 01:57:27;;;;;;;31.70;11.38;;;;;;;2.24;71.56;101352.37;1761723;81;21161;-62
2022/10/12 02:00:16;;;;;;;23.12;11.35;;;;;;;2.16;71.43;101344.77;1757714;81;21157;-61
2022/10/12 02:03:29;;;;;;;27.85;12.35;;;;;;;2.14;71.49;101344.50;1763275;81;21204;-62
2022/10/12 02:06:21;;;;;;;24.67;11.00;;;;;;;2.10;71.49;101339.78;1763055;81;21157;-61
2022/10/12 02:09:21;;;;;;;23.07;10.50;;;;;;;2.10;71.53;101335.73;1762996;81;21241;-61
2022/10/12 02:12:13;;;;;;;21.70;9.63;;;;;;;2.10;71.57;101337.08;1762953;81;21252;-62
2022/10/12 02:15:09;;;;;;;16.97;8.40;;;;;;;2.10;71.59;101336.20;1763092;81;21335;-60
2022/10/12 02:18:14;;;;;;;13.90;6.67;;;;;;;2.13;71.72;101340.92;1762930;81;21204;-61
2022/10/12 02:21:21;;;;;;;18.57;6.87;;;;;;;2.17;71.84;101334.34;1763027;81;21169;-61
2022/10/12 02:24:28;;;;;;;11.03;5.65;;;;;;;2.20;71.80;101334.17;1763141;81;21205;-61
2022/10/12 02:27:33;;;;;;;11.43;6.12;;;;;;;2.22;71.85;101338.97;1763111;81;21264;-61
2022/10/12 02:30:49;;;;;;;11.43;6.75;;;;;;;2.28;71.94;101337.72;1762995;81;21165;-61
2022/10/12 02:34:22;;;;;;;12.05;6.97;;;;;;;2.28;71.89;101330.97;1763019;81;21197;-62
2022/10/12 02:37:42;;;;;;;13.95;6.67;;;;;;;2.27;71.78;101335.96;1763302;81;21145;-61
2022/10/12 02:40:56;;;;;;;11.95;7.03;;;;;;;2.27;71.83;101331.91;1763225;81;21291;-62
2022/10/12 02:44:07;;;;;;;15.05;6.83;;;;;;;2.31;72.00;101344.27;1763570;81;21228;-62
2022/10/12 02:47:15;;;;;;;14.63;7.43;;;;;;;2.34;72.09;101344.06;1746452;81;21197;-62
2022/10/12 02:50:20;;;;;;;15.63;7.30;;;;;;;2.36;72.18;101342.14;1763347;81;21209;-61
2022/10/12 02:53:28;;;;;;;13.40;7.03;;;;;;;2.37;72.25;101349.27;1761950;81;21213;-62
2022/10/12 02:56:34;;;;;;;18.87;8.80;;;;;;;2.37;72.27;101343.86;1762150;81;21170;-62
2022/10/12 02:59:39;;;;;;;28.52;16.65;;;;;;;2.34;72.27;101330.08;1763071;81;21220;-62
2022/10/12 03:02:46;;;;;;;29.35;16.65;;;;;;;2.33;72.29;101335.59;1754548;81;21141;-62
2022/10/12 03:05:54;;;;;;;26.00;13.80;;;;;;;2.31;72.25;101332.98;1762879;81;21158;-62
2022/10/12 03:09:01;;;;;;;34.50;21.60;;;;;;;2.26;72.05;101336.94;1762085;81;21192;-63
2022/10/12 03:12:08;;;;;;;32.55;21.37;;;;;;;2.18;71.87;101338.80;1762780;81;21145;-61
2022/10/12 03:15:15;;;;;;;34.18;25.30;;;;;;;2.12;71.77;101335.16;1762921;81;21261;-61
2022/10/12 03:18:22;;;;;;;29.95;21.05;;;;;;;2.05;71.67;101332.45;1762741;81;21166;-62
2022/10/12 03:21:28;;;;;;;29.37;20.30;;;;;;;2.01;71.71;101340.38;1762765;81;21150;-62
2022/10/12 03:24:35;;;;;;;29.00;20.08;;;;;;;2.00;71.85;101334.58;1758863;81;21185;-61
2022/10/12 03:27:42;;;;;;;20.70;15.30;;;;;;;2.03;72.02;101340.28;1762444;81;21296;-60
2022/10/12 03:30:50;;;;;;;22.48;14.35;;;;;;;2.02;71.97;101346.63;1762742;81;21165;-62
2022/10/12 03:33:59;;;;;;;21.33;14.13;;;;;;;1.99;71.96;101346.82;1762755;81;21204;-61
2022/10/12 03:37:05;;;;;;;23.18;13.62;;;;;;;1.98;71.98;101348.68;1762662;81;21205;-60
2022/10/12 03:40:15;;;;;;;23.40;13.50;;;;;;;1.96;71.90;101345.67;1762713;81;21169;-59
2022/10/12 03:43:21;;;;;;;20.08;13.38;;;;;;;1.92;71.93;101339.59;1762914;81;21572;-58
2022/10/12 03:46:27;;;;;;;24.63;15.38;;;;;;;1.89;71.85;101339.79;1761247;81;21235;-60
2022/10/12 03:49:32;;;;;;;21.70;13.20;;;;;;;1.87;71.86;101338.17;1722489;82;21208;-59
2022/10/12 03:52:40;;;;;;;24.20;13.25;;;;;;;1.87;71.98;101332.77;1747759;82;21256;-61
2022/10/12 03:55:46;;;;;;;25.15;15.43;;;;;;;1.89;72.13;101338.95;1765729;81;21224;-59
2022/10/12 03:58:52;;;;;;;30.97;17.25;;;;;;;1.94;72.38;101332.74;1771157;81;21196;-59
2022/10/12 04:01:58;;;;;;;26.42;15.88;;;;;;;1.99;72.54;101327.45;1771170;81;21291;-60
2022/10/12 04:05:04;;;;;;;20.08;11.38;;;;;;;2.03;72.60;101339.77;1771097;81;21216;-59
2022/10/12 04:08:09;;;;;;;18.50;9.33;;;;;;;2.03;72.54;101338.42;1771136;81;21256;-60
2022/10/12 04:11:15;;;;;;;17.05;10.32;;;;;;;2.00;72.38;101340.48;1771183;81;21211;-60
2022/10/12 04:14:21;;;;;;;17.62;10.18;;;;;;;2.01;72.32;101344.91;1771066;81;21210;-59
2022/10/12 04:17:27;;;;;;;21.23;12.53;;;;;;;2.03;72.39;101347.03;1771178;81;21370;-61
2022/10/12 04:20:34;;;;;;;20.35;11.57;;;;;;;2.08;72.44;101350.31;1771045;79;21184;-60
2022/10/12 04:23:42;;;;;;;27.48;13.03;;;;;;;2.10;72.46;101352.40;1770501;81;21504;-59
2022/10/12 04:26:48;;;;;;;29.02;13.80;;;;;;;2.14;72.54;101351.25;1770913;81;21303;-59
2022/10/12 04:29:56;;;;;;;29.02;13.72;;;;;;;2.20;72.67;101350.38;1771158;81;21362;-60
2022/10/12 04:33:02;;;;;;;30.10;13.22;;;;;;;2.24;72.66;101356.42;1770574;81;21173;-59
2022/10/12 04:36:10;;;;;;;27.82;12.45;;;;;;;2.26;72.62;101351.80;1749624;81;21240;-60
2022/10/12 04:39:18;;;;;;;58.58;20.17;;;;;;;2.31;72.68;101352.37;1771193;81;21243;-60
2022/10/12 04:42:23;;;;;;;60.45;19.75;;;;;;;2.36;72.72;101355.64;1746885;81;21200;-59
2022/10/12 04:45:29;;;;;;;38.08;14.65;;;;;;;2.41;72.76;101358.41;1782013;79;21200;-58
2022/10/12 04:48:35;;;;;;;35.75;14.75;;;;;;;2.48;72.86;101365.64;1791693;79;21279;-57
2022/10/12 04:51:41;;;;;;;35.90;13.00;;;;;;;2.55;72.93;101363.77;1779088;79;21224;-57
2022/10/12 04:54:48;;;;;;;26.25;10.95;;;;;;;2.62;72.92;101369.17;1757962;80;21285;-57
2022/10/12 04:57:55;;;;;;;26.97;11.85;;;;;;;2.66;72.76;101371.20;1722671;83;21233;-57
2022/10/12 05:01:01;;;;;;;23.75;11.55;;;;;;;2.74;72.86;101374.26;1806113;79;21200;-64
2022/10/12 05:04:06;;;;;;;24.10;12.47;;;;;;;2.82;72.95;101377.31;1805333;79;21740;-59
2022/10/12 05:07:12;;;;;;;22.20;13.80;;;;;;;2.92;73.04;101373.88;1802898;79;21149;-60
2022/10/12 05:10:18;;;;;;;24.10;14.73;;;;;;;3.02;73.10;101377.71;1804493;79;21705;-59
2022/10/12 05:13:26;;;;;;;20.95;10.70;;;;;;;3.12;73.15;101369.84;1766931;80;21222;-61
2022/10/12 05:16:33;;;;;;;14.03;8.60;;;;;;;3.22;73.20;101384.45;1801609;79;21189;-62
2022/10/12 05:19:39;;;;;;;15.18;8.50;;;;;;;3.30;73.24;101384.80;1774024;80;21224;-59
2022/10/12 05:22:45;;;;;;;16.87;8.18;;;;;;;3.41;73.27;101387.62;1787194;79;21710;-60
2022/10/12 05:25:53;;;;;;;15.55;8.75;;;;;;;3.52;73.34;101382.84;1802540;79;21346;-59
2022/10/12 05:29:01;;;;;;;19.52;10.13;;;;;;;3.64;73.37;101380.14;1813624;78;21634;-55
2022/10/12 05:32:08;;;;;;;30.80;15.90;;;;;;;3.75;73.33;101381.61;1815088;78;21189;-55
2022/10/12 05:35:15;;;;;;;31.37;18.82;;;;;;;3.86;73.33;101380.83;1817431;78;21722;-56
2022/10/12 05:38:15;;;;;;;35.00;19.52;;;;;;;3.97;73.36;101380.94;1788535;79;21195;-56
2022/10/12 05:41:10;;;;;;;34.25;18.92;;;;;;;4.09;73.45;101380.08;1765772;80;21730;-57
2022/10/12 05:43:57;;;;;;;31.52;18.27;;;;;;;4.20;73.46;101379.66;1737796;82;21726;-53
2022/10/12 05:46:51;;;;;;;34.18;18.12;;;;;;;4.32;73.45;101389.63;1766325;80;21738;-56
2022/10/12 05:49:37;;;;;;;26.70;16.77;;;;;;;4.45;73.47;101386.41;1764611;80;21177;-56
2022/10/12 05:52:30;;;;;;;23.87;14.98;;;;;;;4.59;73.54;101394.38;1768588;80;21181;-55
2022/10/12 05:55:36;;;;;;;24.40;14.30;;;;;;;4.73;73.61;101397.41;1768073;80;21165;-56
2022/10/12 05:58:43;;;;;;;21.90;13.30;;;;;;;4.88;73.63;101394.05;1774570;80;21757;-57
2022/10/12 06:01:50;;;;;;;23.67;15.40;;;;;;;5.04;73.67;101392.80;1776079;80;21189;-55
2022/10/12 06:04:55;;;;;;;24.50;14.33;;;;;;;5.18;73.68;101401.23;1783284;80;21760;-56
2022/10/12 06:08:01;;;;;;;23.15;12.80;;;;;;;5.36;73.70;101395.77;1802245;79;21732;-54
2022/10/12 06:11:07;;;;;;;26.25;14.80;;;;;;;5.54;73.74;101391.12;1787626;79;21390;-57
2022/10/12 06:14:13;;;;;;;21.62;13.00;;;;;;;5.74;73.79;101393.65;1779195;80;21201;-56
2022/10/12 06:17:20;;;;;;;22.32;13.08;;;;;;;5.99;73.83;101392.11;1771343;80;21196;-57
2022/10/12 06:20:26;;;;;;;19.27;11.33;;;;;;;6.26;73.89;101395.83;1780471;80;21204;-56
2022/10/12 06:23:32;;;;;;;21.48;11.30;;;;;;;6.55;73.90;101390.25;1791380;80;21748;-55
2022/10/12 06:26:38;;;;;;;16.45;9.35;;;;;;;6.82;73.89;101390.19;1791087;79;21259;-56
2022/10/12 06:29:46;;;;;;;13.45;7.58;;;;;;;7.04;73.86;101396.92;1791803;80;21200;-55
2022/10/12 06:32:53;;;;;;;14.50;8.10;;;;;;;7.23;73.81;101398.46;1791756;80;21251;-56
2022/10/12 06:36:01;;;;;;;15.03;7.60;;;;;;;7.38;73.76;101399.91;1791058;80;21196;-56
2022/10/12 06:39:08;;;;;;;14.13;10.08;;;;;;;7.53;73.76;101402.66;1796860;80;21585;-56
2022/10/12 06:42:16;;;;;;;13.80;7.50;;;;;;;7.68;73.77;101402.33;1785580;80;21725;-56
2022/10/12 06:45:22;;;;;;;11.78;7.50;;;;;;;7.81;73.65;101399.79;1762013;80;21189;-56
2022/10/12 06:48:28;;;;;;;13.55;7.58;;;;;;;7.94;73.63;101392.27;1763610;81;21213;-56
2022/10/12 06:51:34;;;;;;;15.18;7.55;;;;;;;8.09;73.64;101406.40;1716779;79;21413;-60
2022/10/12 06:54:41;;;;;;;13.28;7.55;;;;;;;8.24;73.64;101402.36;1716199;83;21227;-61
2022/10/12 06:57:47;;;;;;;13.35;7.22;;;;;;;8.39;73.61;101409.17;1735684;82;21189;-60
2022/10/12 07:00:52;;;;;;;14.43;8.33;;;;;;;8.55;73.56;101408.16;1712273;82;21241;-60
2022/10/12 07:03:59;;;;;;;13.50;7.67;;;;;;;8.71;73.55;101401.19;1726013;80;21259;-60
2022/10/12 07:07:06;;;;;;;13.35;7.53;;;;;;;8.88;73.53;101406.47;1736755;81;21209;-56
2022/10/12 07:10:15;;;;;;;18.92;8.88;;;;;;;9.05;73.47;101406.65;1775186;80;21180;-55
2022/10/12 07:13:23;;;;;;;14.20;8.00;;;;;;;9.22;73.40;101395.54;1790178;79;21232;-54
2022/10/12 07:16:35;;;;;;;15.53;9.30;;;;;;;9.39;73.32;101398.08;1763282;81;21771;-55
2022/10/12 07:20:00;;;;;;;16.02;9.10;;;;;;;9.55;73.31;101388.28;1758451;79;21726;-58
2022/10/12 07:23:08;;;;;;;18.55;8.90;;;;;;;9.75;73.19;101391.87;1751122;79;21216;-55
2022/10/12 07:26:22;;;;;;;16.15;8.15;;;;;;;9.94;73.07;101393.20;1753509;79;21378;-55
2022/10/12 07:29:33;;;;;;;20.00;7.50;;;;;;;10.11;73.03;101391.10;1745919;81;21217;-57
2022/10/12 07:32:43;;;;;;;20.47;7.77;;;;;;;10.26;72.95;101392.33;1743717;81;21273;-54
2022/10/12 07:35:51;;;;;;;17.67;7.53;;;;;;;10.41;72.91;101386.74;1734472;81;21687;-55
2022/10/12 07:39:03;;;;;;;14.10;8.00;;;;;;;10.54;72.82;101396.33;1748029;81;21280;-54
2022/10/12 07:42:12;;;;;;;14.98;7.72;;;;;;;10.71;72.82;101393.30;1749895;80;21290;-60
2022/10/12 07:45:21;;;;;;;14.80;7.92;;;;;;;10.87;72.86;101389.89;1730719;81;21181;-56
2022/10/12 07:48:27;;;;;;;30.97;18.62;;;;;;;11.04;72.84;101393.17;1752193;81;21190;-55
2022/10/12 07:51:37;;;;;;;14.15;9.60;;;;;;;11.19;72.83;101391.64;1760067;79;21834;-55
2022/10/12 07:54:43;;;;;;;13.15;8.20;;;;;;;11.32;72.79;101388.85;1696495;84;21267;-55
2022/10/12 07:57:49;;;;;;;14.95;9.60;;;;;;;11.46;72.76;101384.72;1741454;81;21703;-54
2022/10/12 08:00:54;;;;;;;13.38;8.30;;;;;;;11.61;72.74;101385.87;1716246;81;22063;-55
2022/10/12 08:04:01;;;;;;;12.82;7.45;;;;;;;11.80;72.66;101380.23;1768091;79;21192;-55
2022/10/12 08:07:08;;;;;;;14.28;7.45;;;;;;;11.93;72.52;101376.08;1747940;79;21182;-55
2022/10/12 08:10:15;;;;;;;12.43;7.50;;;;;;;12.06;72.49;101374.27;1755102;80;21158;-58
2022/10/12 08:13:22;;;;;;;12.23;6.95;;;;;;;12.20;72.48;101374.17;1747485;80;21200;-54
2022/10/12 08:16:27;;;;;;;13.20;5.97;;;;;;;12.33;72.42;101372.73;1772021;80;21189;-55
2022/10/12 08:19:34;;;;;;;9.08;5.97;;;;;;;12.42;72.34;101365.37;1781499;79;21274;-54
2022/10/12 08:22:38;;;;;;;8.60;5.70;;;;;;;12.47;72.35;101359.75;1771935;78;21192;-55
2022/10/12 08:25:45;;;;;;;9.38;5.45;;;;;;;12.51;72.35;101357.02;1751459;80;21550;-55
2022/10/12 08:28:51;;;;;;;11.12;6.25;;;;;;;12.56;72.35;101360.66;1785002;78;21697;-54
2022/10/12 08:31:57;;;;;;;15.15;8.20;;;;;;;12.60;72.31;101346.43;1786015;78;21475;-54
2022/10/12 08:35:02;;;;;;;14.78;8.95;;;;;;;12.64;72.34;101349.69;1788000;78;21879;-54
2022/10/12 08:38:07;;;;;;;17.00;10.32;;;;;;;12.66;72.33;101343.52;1787136;79;21208;-54
2022/10/12 08:41:45;;;;;;;16.73;8.68;;;;;;;12.70;72.30;101344.92;1775450;80;21259;-55
2022/10/12 08:45:13;;;;;;;10.03;5.97;;;;;;;12.77;72.33;101345.45;1775092;79;21205;-55
2022/10/12 08:48:37;;;;;;;9.18;5.05;;;;;;;12.98;72.45;101347.25;1804530;79;21188;-54
2022/10/12 08:51:44;;;;;;;;;;;;;;;13.20;72.47;101341.14;1784156;79;21176;-54
2022/10/12 08:54:50;;;;;;;7.97;4.67;;;;;;;13.38;72.42;101343.75;1795933;80;20239;-54
2022/10/12 08:57:57;;;;;;;9.15;5.37;;;;;;;13.51;72.40;101339.95;1796328;80;21443;-55
2022/10/12 09:01:27;;;;;;;10.65;5.12;;;;;;;13.67;72.36;101340.49;1783338;80;21200;-54
2022/10/12 09:04:59;;;;;;;8.78;4.17;;;;;;;13.82;72.33;101337.37;1762392;80;21201;-55
2022/10/12 09:08:34;;;;;;;9.13;4.78;;;;;;;13.97;72.26;101336.48;1773533;79;21208;-57
2022/10/12 09:12:06;;;;;;;8.43;4.20;;;;;;;14.14;72.11;101340.08;1784224;80;21181;-56
2022/10/12 09:15:16;;;;;;;10.55;3.95;;;;;;;14.28;71.94;101333.37;1776887;79;21582;-55
2022/10/12 09:18:38;;;;;;;6.87;4.25;;;;;;;14.41;71.80;101336.40;1774808;79;21854;-56
2022/10/12 09:21:45;;;;;;;6.50;3.72;;;;;;;14.50;71.79;101333.98;1766231;80;21527;-54
2022/10/12 09:24:53;;;;;;;7.65;4.25;;;;;;;14.60;71.69;101328.26;1737817;80;21738;-56
2022/10/12 09:27:59;;;;;;;8.95;4.72;;;;;;;14.60;71.54;101317.23;1770478;80;21181;-55
2022/10/12 09:31:37;;;;;;;7.75;4.53;;;;;;;14.52;71.35;101320.89;1786252;79;21227;-56
2022/10/12 09:34:42;;;;;;;7.75;4.30;;;;;;;14.43;71.33;101319.18;1795709;79;21204;-55
2022/10/12 09:37:50;;;;;;;9.45;5.65;;;;;;;14.38;71.33;101314.72;1763704;79;21760;-55
2022/10/12 09:40:55;;;;;;;8.70;4.65;;;;;;;14.30;71.28;101314.74;1759622;81;21189;-54
2022/10/12 09:44:07;;;;;;;8.03;4.37;;;;;;;14.27;71.31;101310.14;1770700;79;21193;-54
2022/10/12 09:47:32;;;;;;;12.73;5.50;;;;;;;14.29;71.30;101309.41;1762164;80;21201;-59
2022/10/12 09:50:54;;;;;;;10.05;4.72;;;;;;;14.34;71.40;101301.48;1759202;80;21201;-60
2022/10/12 09:53:53;;;;;;;7.28;4.33;;;;;;;14.45;71.43;101299.72;1768449;79;21777;-59
2022/10/12 09:57:05;;;;;;;9.28;4.58;;;;;;;14.56;71.45;101302.08;1750026;80;21387;-59
2022/10/12 10:00:31;;;;;;;8.70;4.83;;;;;;;14.72;71.46;101307.01;1767889;80;21299;-59
2022/10/12 10:03:37;;;;;;;7.00;4.72;;;;;;;14.89;71.43;101303.63;1766964;80;21192;-61
2022/10/12 10:06:52;;;;;;;7.90;4.95;;;;;;;15.01;71.33;101298.05;1761096;80;21248;-57
2022/10/12 10:10:28;;;;;;;8.38;5.03;;;;;;;15.14;71.30;101298.83;1761616;80;21856;-54
2022/10/12 10:13:42;;;;;;;9.58;5.15;;;;;;;15.28;71.24;101294.76;1749316;80;21889;-54
2022/10/12 10:16:58;;;;;;;7.75;4.95;;;;;;;15.37;71.11;101303.30;1732859;79;21270;-53
2022/10/12 10:20:04;;;;;;;9.75;6.05;;;;;;;15.43;71.01;101294.31;1816185;78;21330;-54
2022/10/12 10:23:12;;;;;;;11.88;5.83;;;;;;;15.49;70.95;101288.05;1811927;78;21271;-53
2022/10/12 10:26:22;;;;;;;8.13;5.05;;;;;;;15.52;70.83;101284.94;1820887;78;21478;-54
2022/10/12 10:29:33;;;;;;;9.88;6.33;;;;;;;15.53;70.75;101285.78;1821170;78;21227;-54
2022/10/12 10:32:39;;;;;;;12.58;5.87;;;;;;;15.59;70.73;101283.14;1820390;78;21183;-53
2022/10/12 10:35:45;;;;;;;9.45;5.55;;;;;;;15.66;70.66;101284.63;1820428;78;21226;-53
2022/10/12 10:39:11;;;;;;;13.28;6.05;;;;;;;15.69;70.50;101277.35;1809007;78;21823;-54
2022/10/12 10:42:21;;;;;;;15.48;5.75;;;;;;;15.78;70.46;101274.84;1820604;78;21700;-54
2022/10/12 10:45:34;;;;;;;9.83;5.67;;;;;;;15.99;70.49;101273.59;1805632;78;21183;-56
2022/10/12 10:49:05;;;;;;;12.13;6.12;;;;;;;16.21;70.38;101279.55;1799595;78;21780;-55
2022/10/12 10:52:11;;;;;;;13.88;5.80;;;;;;;16.33;70.26;101265.61;1743261;81;21202;-54
2022/10/12 10:55:26;;;;;;;11.95;5.03;;;;;;;16.46;70.06;101274.64;1745264;80;21194;-54
2022/10/12 10:58:52;;;;;;;9.75;5.55;;;;;;;16.53;69.98;101264.51;1758223;81;21226;-55
2022/10/12 11:02:06;;;;;;;8.05;4.72;;;;;;;16.63;69.87;101265.07;1757877;81;21372;-53
2022/10/12 11:05:42;;;;;;;9.98;3.77;;;;;;;16.66;69.66;101264.68;1761044;79;21203;-55
2022/10/12 11:08:50;;;;;;;5.87;4.00;;;;;;;16.64;69.49;101259.86;1746274;81;21353;-55
2022/10/12 11:12:09;;;;;;;7.00;3.52;;;;;;;16.61;69.37;101257.48;1797137;79;21769;-55
2022/10/12 11:15:35;;;;;;;8.73;3.87;;;;;;;16.65;69.36;101262.98;1791636;79;21717;-56
2022/10/12 11:18:48;;;;;;;8.45;4.10;;;;;;;16.76;69.49;101249.48;1786391;79;21733;-55
2022/10/12 11:22:00;;;;;;;8.45;3.90;;;;;;;17.04;69.73;101253.75;1794136;79;21271;-55
2022/10/12 11:25:15;;;;;;;7.75;4.10;;;;;;;17.31;69.70;101244.66;1743851;81;21180;-53
2022/10/12 11:28:22;;;;;;;4.95;3.30;;;;;;;17.57;69.65;101244.91;1820066;78;21242;-54
2022/10/12 11:31:38;;;;;;;8.00;4.17;;;;;;;17.78;69.46;101241.59;1781871;80;21195;-54
2022/10/12 11:34:56;;;;;;;19.60;10.00;;;;;;;17.94;69.30;101240.42;1782660;80;21217;-54
2022/10/12 11:38:12;;;;;;;6.45;3.92;;;;;;;18.16;69.13;101246.73;1793145;79;22006;-53
2022/10/12 11:41:27;;;;;;;6.37;4.00;;;;;;;18.31;68.96;101238.64;1788796;79;21462;-54
2022/10/12 11:44:48;;;;;;;8.78;4.12;;;;;;;18.41;68.74;101237.75;1799120;79;21319;-58
2022/10/12 11:47:57;;;;;;;9.20;4.35;;;;;;;18.41;68.36;101246.06;1778229;79;21189;-60
2022/10/12 11:51:04;;;;;;;8.73;4.90;;;;;;;18.29;68.15;101242.14;1799541;79;21188;-59
2022/10/12 11:54:18;;;;;;;9.18;4.65;;;;;;;18.19;67.97;101247.19;1799758;79;21213;-59
2022/10/12 11:57:26;;;;;;;;;;;;;;;18.13;67.86;101246.63;1813282;79;21163;-60
2022/10/12 12:00:46;;;;;;;7.12;4.80;;;;;;;18.11;67.79;101258.44;1803238;79;20205;-60
2022/10/12 12:04:21;;;;;;;10.43;5.28;;;;;;;17.94;67.61;101245.97;1766920;80;21194;-58
2022/10/12 12:08:01;;;;;;;10.65;5.30;;;;;;;17.81;67.53;101250.02;1746823;81;21616;-59
2022/10/12 12:11:25;;;;;;;8.95;5.37;;;;;;;17.87;67.77;101248.69;1757230;80;21224;-58
2022/10/12 12:14:39;;;;;;;10.50;5.60;;;;;;;17.96;67.67;101245.77;1780882;79;21228;-60
2022/10/12 12:17:44;;;;;;;11.05;6.72;;;;;;;17.86;67.37;101246.98;1805390;79;21193;-60
2022/10/12 12:20:55;;;;;;;10.43;6.70;;;;;;;17.73;67.17;101245.50;1793421;78;21189;-60
2022/10/12 12:24:02;;;;;;;8.78;6.17;;;;;;;17.60;67.03;101250.08;1790867;79;21204;-59
2022/10/12 12:27:07;;;;;;;10.48;6.12;;;;;;;17.44;66.95;101253.09;1805290;79;21250;-59
2022/10/12 12:30:29;;;;;;;12.75;6.03;;;;;;;17.36;66.91;101246.31;1802151;79;21191;-61
2022/10/12 12:33:41;;;;;;;;;;;;;;;17.42;67.04;101241.36;1776704;79;21204;-59
2022/10/12 12:36:52;;;;;;;22.87;12.63;;;;;;;17.60;67.20;101245.38;1784501;79;20573;-59
2022/10/12 12:40:03;;;;;;;18.60;10.53;;;;;;;17.78;67.21;101238.83;1760600;79;21204;-59
2022/10/12 12:43:29;;;;;;;23.10;12.60;;;;;;;17.93;67.13;101235.95;1791853;79;21622;-59
2022/10/12 12:47:01;;;;;;;14.63;7.83;;;;;;;18.05;67.07;101237.09;1792132;79;21185;-59
2022/10/12 12:50:29;;;;;;;23.77;13.00;;;;;;;18.18;66.97;101233.02;1733206;82;21236;-58
2022/10/12 12:53:36;;;;;;;18.37;10.70;;;;;;;18.28;66.83;101232.64;1733998;81;21253;-58
2022/10/12 12:57:02;;;;;;;12.33;6.37;;;;;;;18.35;66.75;101236.29;1739791;80;21569;-59
2022/10/12 13:00:14;;;;;;;14.50;6.83;;;;;;;18.22;66.28;101244.00;1736670;80;21190;-59
2022/10/12 13:03:36;;;;;;;11.38;6.58;;;;;;;18.01;65.96;101244.11;1772479;79;21173;-60
2022/10/12 13:07:25;;;;;;;15.98;7.08;;;;;;;17.77;65.63;101250.11;1781234;79;21745;-56
2022/10/12 13:10:56;;;;;;;10.95;6.90;;;;;;;17.55;65.57;101251.20;1771339;80;21673;-58
2022/10/12 13:14:10;;;;;;;10.43;7.45;;;;;;;17.36;65.62;101246.31;1754176;81;21194;-58
2022/10/12 13:17:40;;;;;;;15.43;7.90;;;;;;;17.29;65.67;101241.23;1716117;80;21269;-60
2022/10/12 13:20:48;;;;;;;15.40;8.65;;;;;;;17.14;65.52;101241.84;1763023;79;21215;-58
2022/10/12 13:23:56;;;;;;;16.02;8.65;;;;;;;16.97;65.48;101243.99;1735602;82;21209;-59
2022/10/12 13:27:06;;;;;;;11.70;7.75;;;;;;;16.85;65.46;101242.80;1753620;79;21767;-58
2022/10/12 13:30:30;;;;;;;14.30;7.90;;;;;;;16.72;65.36;101247.31;1754259;79;21211;-59
2022/10/12 13:33:45;;;;;;;11.28;7.87;;;;;;;16.58;65.28;101246.82;1748495;81;21195;-59
2022/10/12 13:37:06;;;;;;;16.97;12.33;;;;;;;16.47;65.30;101251.46;1743931;81;21185;-59
2022/10/12 13:40:14;;;;;;;15.30;10.20;;;;;;;16.44;65.28;101249.92;1758963;80;21337;-57
2022/10/12 13:43:45;;;;;;;14.15;9.43;;;;;;;16.47;65.29;101252.84;1757323;80;21326;-59
2022/10/12 13:47:02;;;;;;;10.50;8.05;;;;;;;16.53;65.25;101256.22;1753289;80;21672;-58
2022/10/12 13:50:08;;;;;;;15.40;8.88;;;;;;;16.53;65.14;101253.45;1752169;80;21239;-60
2022/10/12 13:53:19;;;;;;;16.15;8.60;;;;;;;16.47;65.05;101252.33;1764105;79;21210;-58
2022/10/12 13:56:30;;;;;;;13.45;9.13;;;;;;;16.40;64.92;101252.72;1754216;80;21221;-60
2022/10/12 13:59:41;;;;;;;22.82;10.88;;;;;;;16.31;64.86;101258.03;1779145;80;21252;-60
2022/10/12 14:03:05;;;;;;;19.17;9.53;;;;;;;16.21;64.79;101261.08;1765554;79;21197;-62
2022/10/12 14:06:15;;;;;;;12.25;8.15;;;;;;;16.10;64.68;101256.55;1764855;80;21177;-61
2022/10/12 14:09:26;;;;;;;15.60;8.20;;;;;;;15.97;64.60;101255.83;1765315;80;21216;-62
2022/10/12 14:12:33;;;;;;;14.53;10.18;;;;;;;15.84;64.58;101251.48;1774598;79;21718;-60
2022/10/12 14:15:43;;;;;;;18.55;10.38;;;;;;;15.77;64.56;101262.96;1725730;82;21186;-61
2022/10/12 14:18:50;;;;;;;19.67;13.13;;;;;;;15.71;64.62;101263.72;1726458;80;21214;-62
2022/10/12 14:21:58;;;;;;;23.40;13.50;;;;;;;15.67;64.63;101262.36;1736088;82;21749;-61
2022/10/12 14:25:27;;;;;;;21.87;12.05;;;;;;;15.61;64.59;101267.25;1759184;80;21778;-62
2022/10/12 14:28:40;;;;;;;23.45;14.63;;;;;;;15.54;64.53;101270.41;1772104;80;21232;-62
2022/10/12 14:31:57;;;;;;;33.45;17.60;;;;;;;15.44;64.52;101272.59;1778848;78;21187;-63
2022/10/12 14:35:27;;;;;;;39.15;21.00;;;;;;;15.34;64.53;101276.08;1767707;77;21181;-62
2022/10/12 14:38:43;;;;;;;29.82;18.90;;;;;;;15.22;64.49;101278.08;1770963;80;21258;-63
2022/10/12 14:41:58;;;;;;;24.72;13.65;;;;;;;15.11;64.46;101282.11;1750695;81;21698;-62